Modling, Austria
Current Conditions -  °F | °C
As of 12:50 AM on Thursday 27 Nov 2014 (Local Time) from LOWW Reporting Station
Broken Clouds Broken Clouds  
Wind Chill: 27°   Ceiling: 4800
Heat Index: 36°   Visibility: 5mi
Dew Point: 34°   Wind: 13mph
Humidity: 93%   Direction: 130°SE
Pressure: 30.12"   Gusts: NA
Location:  48.09°N, 16.28°E
Report Text: LOWW 262250Z 13011KT 8000 SCT013 BKN048 02/01 Q1020 TEMPO BKN012
Loading
Personal Weather Stations






























Interactive Weather Map New forecast layout! Learn more

10-Day Weather Forecast

Advertisements
Track Severe Weather on mobile